createdAt,value
2019-02-15T00:00:04.969Z,0
2019-02-15T00:00:45.559Z,0
2019-02-15T00:01:26.122Z,0
2019-02-15T00:02:06.695Z,0
2019-02-15T00:02:47.265Z,0
2019-02-15T00:03:27.867Z,0
2019-02-15T00:04:08.432Z,0
2019-02-15T00:04:49.002Z,0
2019-02-15T00:05:29.558Z,0
2019-02-15T00:06:10.118Z,0
2019-02-15T00:06:50.791Z,0
2019-02-15T00:07:31.384Z,0
2019-02-15T00:08:11.980Z,0
2019-02-15T00:08:52.568Z,0
2019-02-15T00:09:33.124Z,0
2019-02-15T00:10:13.716Z,0
2019-02-15T00:10:54.334Z,0
2019-02-15T00:11:34.893Z,0
2019-02-15T00:12:15.490Z,0
2019-02-15T00:12:56.076Z,0
2019-02-15T00:13:36.794Z,0
2019-02-15T00:14:17.391Z,0
2019-02-15T00:14:57.955Z,0
2019-02-15T00:15:38.524Z,0
2019-02-15T00:16:19.086Z,0
2019-02-15T00:16:59.637Z,0
2019-02-15T00:17:40.252Z,0
2019-02-15T00:18:20.791Z,0
2019-02-15T00:19:01.342Z,0
2019-02-15T00:19:41.886Z,0
2019-02-15T00:20:22.440Z,0
2019-02-15T00:21:03.160Z,0
2019-02-15T00:21:43.596Z,0
2019-02-15T00:22:24.254Z,0
2019-02-15T00:23:04.796Z,0
2019-02-15T00:23:45.351Z,0
2019-02-15T00:24:25.912Z,0
2019-02-15T00:25:06.465Z,0
2019-02-15T00:25:47.134Z,0
2019-02-15T00:26:27.695Z,0
2019-02-15T00:27:08.243Z,0
2019-02-15T00:27:48.825Z,0
2019-02-15T00:28:29.389Z,0
2019-02-15T00:29:10.076Z,0
2019-02-15T00:29:50.787Z,0
2019-02-15T00:30:31.351Z,0
2019-02-15T00:31:11.997Z,0
2019-02-15T00:31:52.610Z,0
2019-02-15T00:32:33.194Z,0
2019-02-15T00:33:13.773Z,0
2019-02-15T00:33:54.339Z,0
2019-02-15T00:34:34.891Z,0
2019-02-15T00:35:15.461Z,0
2019-02-15T00:35:56.029Z,0
2019-02-15T00:36:36.603Z,0
2019-02-15T00:37:17.161Z,0
2019-02-15T00:37:57.792Z,0
2019-02-15T00:38:38.371Z,0
2019-02-15T00:39:18.925Z,0
2019-02-15T00:39:59.496Z,0
2019-02-15T00:40:40.098Z,0
2019-02-15T00:41:20.647Z,0
2019-02-15T00:42:01.197Z,0
2019-02-15T00:42:42.283Z,0
2019-02-15T00:43:22.861Z,0
2019-02-15T00:44:03.445Z,0
2019-02-15T00:44:44.103Z,0
2019-02-15T00:45:24.710Z,0
2019-02-15T00:46:05.326Z,0
2019-02-15T00:46:46.032Z,0
2019-02-15T00:47:26.578Z,0
2019-02-15T00:48:07.133Z,0
2019-02-15T00:48:47.706Z,0
2019-02-15T00:49:28.293Z,0
2019-02-15T00:50:08.921Z,0
2019-02-15T00:50:49.476Z,0
2019-02-15T00:51:30.038Z,0
2019-02-15T00:52:10.644Z,0
2019-02-15T00:52:51.199Z,0
2019-02-15T00:53:31.764Z,0
2019-02-15T00:54:12.343Z,0
2019-02-15T00:54:52.916Z,0
2019-02-15T00:55:33.481Z,0
2019-02-15T00:56:14.061Z,0
2019-02-15T00:56:54.701Z,0
2019-02-15T00:57:35.294Z,0
2019-02-15T00:58:15.865Z,0
2019-02-15T00:58:56.446Z,0
2019-02-15T00:59:37.001Z,0
2019-02-15T01:00:17.565Z,0
2019-02-15T01:00:58.123Z,0
2019-02-15T01:01:38.718Z,0
2019-02-15T01:02:19.275Z,0
2019-02-15T01:02:59.835Z,0
2019-02-15T01:03:40.412Z,0
2019-02-15T01:04:21.008Z,0
2019-02-15T01:05:01.558Z,0
2019-02-15T01:05:42.183Z,0
2019-02-15T01:06:22.766Z,0
2019-02-15T01:07:03.329Z,0
2019-02-15T01:07:43.912Z,0
2019-02-15T01:08:24.473Z,0
2019-02-15T01:09:05.051Z,0
2019-02-15T01:09:45.628Z,0
2019-02-15T01:10:26.196Z,0
2019-02-15T01:11:06.765Z,0
2019-02-15T01:11:47.322Z,0
2019-02-15T01:12:27.922Z,0
2019-02-15T01:13:08.499Z,0
2019-02-15T01:13:49.093Z,0
2019-02-15T01:14:29.656Z,0
2019-02-15T01:15:10.227Z,0
2019-02-15T01:15:50.803Z,0
2019-02-15T01:16:31.372Z,0
2019-02-15T01:17:11.945Z,0
2019-02-15T01:17:52.529Z,0
2019-02-15T01:18:33.131Z,0
2019-02-15T01:19:13.692Z,0
2019-02-15T01:19:54.296Z,0
2019-02-15T01:20:34.862Z,0
2019-02-15T01:21:15.441Z,0
2019-02-15T01:21:56.026Z,0
2019-02-15T01:22:36.637Z,0
2019-02-15T01:23:17.198Z,0
2019-02-15T01:23:57.773Z,0
2019-02-15T01:24:38.336Z,0
2019-02-15T01:25:18.904Z,0
2019-02-15T01:25:59.473Z,0
2019-02-15T01:26:40.050Z,0
2019-02-15T01:27:20.664Z,0
2019-02-15T01:28:01.258Z,0
2019-02-15T01:28:41.853Z,0
2019-02-15T01:29:22.394Z,0
2019-02-15T01:30:02.950Z,0
2019-02-15T01:30:43.540Z,0
2019-02-15T01:31:24.136Z,0
2019-02-15T01:32:04.701Z,0
2019-02-15T01:32:45.263Z,0
2019-02-15T01:33:25.840Z,0
2019-02-15T01:34:06.403Z,0
2019-02-15T01:34:46.985Z,0
2019-02-15T01:35:27.531Z,0
2019-02-15T01:36:08.125Z,0
2019-02-15T01:36:48.688Z,0
2019-02-15T01:37:29.266Z,0
2019-02-15T01:38:09.849Z,0
2019-02-15T01:38:50.428Z,0
2019-02-15T01:39:30.998Z,0
2019-02-15T01:40:11.582Z,0
2019-02-15T01:40:52.185Z,0
2019-02-15T01:41:32.790Z,0
2019-02-15T01:42:13.395Z,0
2019-02-15T01:42:53.952Z,0
2019-02-15T01:43:39.968Z,0
2019-02-15T01:44:15.104Z,0
2019-02-15T01:44:55.684Z,0
2019-02-15T01:45:36.248Z,0
2019-02-15T01:46:16.838Z,0
2019-02-15T01:46:57.464Z,0
2019-02-15T01:47:39.709Z,0
2019-02-15T01:48:18.604Z,0
2019-02-15T01:48:59.162Z,0
2019-02-15T01:49:39.756Z,0
2019-02-15T01:50:20.315Z,0
2019-02-15T01:51:00.912Z,0
2019-02-15T01:51:41.501Z,0
2019-02-15T01:52:22.052Z,0
2019-02-15T01:53:02.613Z,0
2019-02-15T01:53:43.179Z,0
2019-02-15T01:54:23.774Z,0
2019-02-15T01:55:04.343Z,0
2019-02-15T01:55:44.921Z,0
2019-02-15T01:56:25.495Z,0
2019-02-15T01:57:06.137Z,0
2019-02-15T01:57:46.677Z,0
2019-02-15T01:58:27.247Z,0
2019-02-15T01:59:07.814Z,0
2019-02-15T01:59:48.432Z,0
2019-02-15T02:00:29.024Z,0
2019-02-15T02:01:09.650Z,0
2019-02-15T02:01:50.235Z,0
2019-02-15T02:02:30.792Z,0
2019-02-15T02:03:11.381Z,0
2019-02-15T02:03:51.970Z,0
2019-02-15T02:04:32.547Z,0
2019-02-15T02:05:13.090Z,0
2019-02-15T02:05:53.645Z,0
2019-02-15T02:06:34.258Z,0
2019-02-15T02:07:14.822Z,0
2019-02-15T02:07:55.401Z,0
2019-02-15T02:08:35.952Z,0
2019-02-15T02:09:16.541Z,0
2019-02-15T02:09:57.114Z,0
2019-02-15T02:10:37.675Z,0
2019-02-15T02:11:18.243Z,0
2019-02-15T02:11:58.809Z,0
2019-02-15T02:12:39.368Z,0
2019-02-15T02:13:19.928Z,0
2019-02-15T02:14:00.492Z,0
2019-02-15T02:14:41.046Z,0
2019-02-15T02:15:21.620Z,0
2019-02-15T02:16:02.160Z,0
2019-02-15T02:16:42.720Z,0
2019-02-15T02:17:23.288Z,0
2019-02-15T02:18:03.861Z,0
2019-02-15T02:18:44.449Z,0
2019-02-15T02:19:25.012Z,0
2019-02-15T02:20:05.584Z,0
2019-02-15T02:20:46.146Z,0
2019-02-15T02:21:26.728Z,0
2019-02-15T02:22:07.283Z,0
2019-02-15T02:22:47.838Z,0
2019-02-15T02:23:28.418Z,0
2019-02-15T02:24:09.001Z,0
2019-02-15T02:24:49.591Z,0
2019-02-15T02:25:30.181Z,0
2019-02-15T02:26:10.746Z,0
2019-02-15T02:26:51.302Z,0
2019-02-15T02:27:31.860Z,0
2019-02-15T02:28:12.415Z,0
2019-02-15T02:28:52.993Z,0
2019-02-15T02:29:33.554Z,0
2019-02-15T02:30:14.126Z,0
2019-02-15T02:30:54.715Z,0
2019-02-15T02:31:35.282Z,0
2019-02-15T02:32:15.811Z,0
2019-02-15T02:32:56.369Z,0
2019-02-15T02:33:36.915Z,0
2019-02-15T02:34:17.485Z,0
2019-02-15T02:34:58.021Z,0
2019-02-15T02:35:38.574Z,0
2019-02-15T02:36:19.150Z,0
2019-02-15T02:36:59.724Z,0
2019-02-15T02:37:40.298Z,0
2019-02-15T02:38:20.880Z,0
2019-02-15T02:39:01.434Z,0
2019-02-15T02:39:42.015Z,0
2019-02-15T02:40:22.581Z,0
2019-02-15T02:41:03.126Z,0
2019-02-15T02:41:43.677Z,0
2019-02-15T02:42:24.908Z,0
2019-02-15T02:43:05.494Z,0
2019-02-15T02:43:46.047Z,0
2019-02-15T02:44:26.614Z,0
2019-02-15T02:45:07.193Z,0
2019-02-15T02:45:47.756Z,0
2019-02-15T02:46:28.354Z,0
2019-02-15T02:47:08.925Z,0
2019-02-15T02:47:49.485Z,0
2019-02-15T02:48:30.073Z,0
2019-02-15T02:49:10.667Z,0
2019-02-15T02:49:51.217Z,0
2019-02-15T02:50:31.830Z,0
2019-02-15T02:51:12.423Z,0
2019-02-15T02:51:52.991Z,0
2019-02-15T02:52:33.562Z,0
2019-02-15T02:53:14.132Z,0
2019-02-15T02:53:54.735Z,0
2019-02-15T02:54:35.297Z,0
2019-02-15T02:55:15.846Z,0
2019-02-15T02:55:56.439Z,0
2019-02-15T02:56:37.020Z,0
2019-02-15T02:57:17.601Z,0
2019-02-15T02:57:58.154Z,0
2019-02-15T02:58:38.731Z,0
2019-02-15T02:59:19.325Z,0
2019-02-15T02:59:59.957Z,0
2019-02-15T03:00:40.482Z,0
2019-02-15T03:01:22.982Z,0
2019-02-15T03:02:01.644Z,0
2019-02-15T03:02:42.229Z,0
2019-02-15T03:03:22.802Z,0
2019-02-15T03:04:03.387Z,0
2019-02-15T03:04:44.017Z,0
2019-02-15T03:05:24.609Z,0
2019-02-15T03:06:05.190Z,0
2019-02-15T03:06:45.715Z,0
2019-02-15T03:07:26.298Z,0
2019-02-15T03:08:06.849Z,0
2019-02-15T03:08:47.409Z,0
2019-02-15T03:09:27.960Z,0
2019-02-15T03:10:08.557Z,0
2019-02-15T03:10:49.121Z,0
2019-02-15T03:11:29.721Z,0
2019-02-15T03:12:10.289Z,0
2019-02-15T03:12:50.855Z,0
2019-02-15T03:13:31.404Z,0
2019-02-15T03:14:12.098Z,0
2019-02-15T03:14:52.574Z,0
2019-02-15T03:15:33.188Z,0
2019-02-15T03:16:13.737Z,0
2019-02-15T03:16:54.317Z,0
2019-02-15T03:17:34.918Z,0
2019-02-15T03:18:15.485Z,0
2019-02-15T03:18:56.059Z,0
2019-02-15T03:19:36.626Z,0
2019-02-15T03:20:17.200Z,0
2019-02-15T03:20:57.753Z,0
2019-02-15T03:21:38.325Z,0
2019-02-15T03:22:18.948Z,0
2019-02-15T03:22:59.511Z,0
2019-02-15T03:23:40.087Z,0
2019-02-15T03:24:20.631Z,0
2019-02-15T03:25:01.187Z,0
2019-02-15T03:25:41.786Z,0
2019-02-15T03:26:22.383Z,0
2019-02-15T03:27:02.936Z,0
2019-02-15T03:27:43.541Z,0
2019-02-15T03:28:24.105Z,0
2019-02-15T03:29:04.663Z,0
2019-02-15T03:29:45.238Z,0
2019-02-15T03:30:25.805Z,0
2019-02-15T03:31:06.394Z,0
2019-02-15T03:31:46.945Z,0
2019-02-15T03:32:27.533Z,0
2019-02-15T03:33:08.122Z,0
2019-02-15T03:33:48.748Z,0
2019-02-15T03:34:29.312Z,0
2019-02-15T03:35:09.881Z,0
2019-02-15T03:35:50.463Z,0
2019-02-15T03:36:31.004Z,0
2019-02-15T03:37:11.552Z,0
2019-02-15T03:37:52.104Z,0
2019-02-15T03:38:32.671Z,0
2019-02-15T03:39:13.220Z,0
2019-02-15T03:39:53.796Z,0
2019-02-15T03:40:34.389Z,0
2019-02-15T03:41:14.971Z,0
2019-02-15T03:41:55.531Z,0
2019-02-15T03:42:36.087Z,0
2019-02-15T03:43:16.669Z,0
2019-02-15T03:43:57.218Z,0
2019-02-15T03:44:37.793Z,0
2019-02-15T03:45:18.330Z,0
2019-02-15T03:45:58.883Z,0
2019-02-15T03:46:39.452Z,0
2019-02-15T03:47:19.996Z,0
2019-02-15T03:48:00.539Z,0
2019-02-15T03:48:41.110Z,0
2019-02-15T03:49:21.674Z,0
2019-02-15T03:50:04.607Z,0
2019-02-15T03:50:42.843Z,0
2019-02-15T03:51:23.406Z,0
2019-02-15T03:52:03.980Z,0
2019-02-15T03:52:44.554Z,0
2019-02-15T03:53:25.110Z,0
2019-02-15T03:54:05.678Z,0
2019-02-15T03:54:46.229Z,0
2019-02-15T03:55:26.794Z,0
2019-02-15T03:56:07.374Z,0
2019-02-15T03:56:47.917Z,0
2019-02-15T03:57:28.501Z,0
2019-02-15T03:58:09.077Z,0
2019-02-15T03:58:49.643Z,0
2019-02-15T03:59:30.245Z,0
2019-02-15T04:00:10.839Z,0
2019-02-15T04:00:51.413Z,0
2019-02-15T04:01:31.959Z,0
2019-02-15T04:02:12.529Z,0
2019-02-15T04:02:53.095Z,0
2019-02-15T04:03:33.659Z,0
2019-02-15T04:04:14.226Z,0
2019-02-15T04:04:54.821Z,0
2019-02-15T04:05:35.381Z,0
2019-02-15T04:06:15.959Z,0
2019-02-15T04:06:56.531Z,0
2019-02-15T04:07:37.095Z,0
2019-02-15T04:08:17.660Z,0
2019-02-15T04:08:58.234Z,0
2019-02-15T04:09:38.860Z,0
2019-02-15T04:10:19.412Z,0
2019-02-15T04:10:59.969Z,0
2019-02-15T04:11:40.561Z,0
2019-02-15T04:12:21.098Z,0
2019-02-15T04:13:01.645Z,0
2019-02-15T04:13:42.228Z,0
2019-02-15T04:14:32.238Z,0
2019-02-15T04:15:03.383Z,0
2019-02-15T04:15:43.932Z,0
2019-02-15T04:16:24.485Z,0
2019-02-15T04:17:05.048Z,0
2019-02-15T04:17:45.641Z,0
2019-02-15T04:18:26.221Z,0
2019-02-15T04:19:06.811Z,0
2019-02-15T04:19:47.381Z,0
2019-02-15T04:20:27.941Z,0
2019-02-15T04:21:08.516Z,0
2019-02-15T04:21:49.111Z,0
2019-02-15T04:22:29.670Z,0
2019-02-15T04:23:10.215Z,0
2019-02-15T04:23:50.822Z,0
2019-02-15T04:24:31.365Z,0
2019-02-15T04:25:11.945Z,0
2019-02-15T04:25:52.497Z,0
2019-02-15T04:26:33.132Z,0
2019-02-15T04:27:13.700Z,0
2019-02-15T04:27:54.257Z,0
2019-02-15T04:28:34.822Z,0
2019-02-15T04:29:15.384Z,0
2019-02-15T04:29:55.924Z,0
2019-02-15T04:30:36.475Z,0
2019-02-15T04:31:17.029Z,0
2019-02-15T04:31:57.608Z,0
2019-02-15T04:32:38.164Z,0
2019-02-15T04:33:18.730Z,0
2019-02-15T04:33:59.293Z,0
2019-02-15T04:34:39.860Z,0
2019-02-15T04:35:20.415Z,0
2019-02-15T04:36:01.010Z,0
2019-02-15T04:36:41.574Z,0
2019-02-15T04:37:22.175Z,0
2019-02-15T04:38:02.694Z,0
2019-02-15T04:38:43.246Z,0
2019-02-15T04:39:23.807Z,0
2019-02-15T04:40:04.376Z,0
2019-02-15T04:40:44.922Z,0
2019-02-15T04:41:25.527Z,0
2019-02-15T04:42:06.081Z,0
2019-02-15T04:42:46.636Z,0
2019-02-15T04:43:27.191Z,0
2019-02-15T04:44:07.768Z,0
2019-02-15T04:44:48.328Z,0
2019-02-15T04:45:28.884Z,0
2019-02-15T04:46:09.441Z,0
2019-02-15T04:46:50.267Z,0
2019-02-15T04:47:30.588Z,0
2019-02-15T04:48:11.167Z,0
2019-02-15T04:48:51.745Z,0
2019-02-15T04:49:32.306Z,0
2019-02-15T04:50:12.872Z,0
2019-02-15T04:50:53.412Z,0
2019-02-15T04:51:33.980Z,0
2019-02-15T04:52:14.535Z,0
2019-02-15T04:52:55.079Z,0
2019-02-15T04:53:35.647Z,0
2019-02-15T04:54:16.221Z,0
2019-02-15T04:54:56.778Z,0
2019-02-15T04:55:37.330Z,0
2019-02-15T04:56:17.928Z,0
2019-02-15T04:56:58.485Z,0
2019-02-15T04:57:39.103Z,0
2019-02-15T04:58:19.619Z,0
2019-02-15T04:59:00.179Z,0
2019-02-15T04:59:40.725Z,0
2019-02-15T05:00:21.288Z,0
2019-02-15T05:01:01.889Z,0
2019-02-15T05:01:42.431Z,0
2019-02-15T05:02:22.992Z,0
2019-02-15T05:03:03.534Z,0
2019-02-15T05:03:44.081Z,0
2019-02-15T05:04:24.647Z,0
2019-02-15T05:05:05.231Z,0
2019-02-15T05:05:45.818Z,0
2019-02-15T05:06:26.368Z,0
2019-02-15T05:07:06.924Z,0
2019-02-15T05:07:47.497Z,0
2019-02-15T05:08:28.058Z,0
2019-02-15T05:09:08.629Z,0
2019-02-15T05:09:49.167Z,0
2019-02-15T05:10:29.859Z,0
2019-02-15T05:11:10.327Z,0
2019-02-15T05:11:50.877Z,0
2019-02-15T05:12:31.448Z,0
2019-02-15T05:13:12.055Z,0
2019-02-15T05:13:52.671Z,0
2019-02-15T05:14:33.231Z,0
2019-02-15T05:15:13.792Z,0
2019-02-15T05:15:54.403Z,0
2019-02-15T05:16:34.987Z,0
2019-02-15T05:17:15.552Z,0
2019-02-15T05:17:56.149Z,0
2019-02-15T05:18:36.718Z,0
2019-02-15T05:19:17.310Z,0
2019-02-15T05:19:57.879Z,0
2019-02-15T05:20:38.463Z,0
2019-02-15T05:21:19.058Z,0
2019-02-15T05:21:59.641Z,0
2019-02-15T05:22:40.254Z,0
2019-02-15T05:23:20.812Z,0
2019-02-15T05:24:01.388Z,0
2019-02-15T05:24:41.989Z,0
2019-02-15T05:25:22.590Z,0
2019-02-15T05:26:03.143Z,0
2019-02-15T05:26:43.732Z,0
2019-02-15T05:27:24.291Z,0
2019-02-15T05:28:04.843Z,0
2019-02-15T05:28:45.428Z,0
2019-02-15T05:29:25.985Z,0
2019-02-15T05:30:06.592Z,0
2019-02-15T05:30:47.163Z,0
2019-02-15T05:31:27.714Z,0
2019-02-15T05:32:08.298Z,0
2019-02-15T05:32:48.889Z,0
2019-02-15T05:33:29.447Z,0
2019-02-15T05:34:10.033Z,0
2019-02-15T05:34:50.599Z,0
2019-02-15T05:35:31.196Z,0
2019-02-15T05:36:11.715Z,0
2019-02-15T05:36:52.295Z,0
2019-02-15T05:37:32.847Z,0
2019-02-15T05:38:13.415Z,0
2019-02-15T05:38:53.987Z,0
2019-02-15T05:39:34.532Z,0
2019-02-15T05:40:15.114Z,0
2019-02-15T05:40:55.672Z,0
2019-02-15T05:41:36.244Z,0
2019-02-15T05:42:17.199Z,0
2019-02-15T05:42:57.749Z,0
2019-02-15T05:43:38.355Z,0
2019-02-15T05:44:18.926Z,0
2019-02-15T05:45:03.510Z,0
2019-02-15T05:45:40.217Z,0
2019-02-15T05:46:20.784Z,0
2019-02-15T05:47:01.357Z,0
2019-02-15T05:47:41.905Z,0
2019-02-15T05:48:22.468Z,0
2019-02-15T05:49:03.023Z,0
2019-02-15T05:49:43.612Z,0
2019-02-15T05:50:24.177Z,0
2019-02-15T05:51:04.731Z,4
2019-02-15T05:51:47.369Z,4
2019-02-15T05:52:25.851Z,4
2019-02-15T05:53:06.421Z,4
2019-02-15T05:53:46.967Z,4
2019-02-15T05:54:27.513Z,0
2019-02-15T05:55:08.061Z,4
2019-02-15T05:55:48.615Z,4
2019-02-15T05:56:29.168Z,4
2019-02-15T05:57:09.780Z,4
2019-02-15T05:57:50.328Z,8
2019-02-15T05:58:30.873Z,8
2019-02-15T05:59:11.456Z,4
2019-02-15T05:59:52.047Z,8
2019-02-15T06:00:36.926Z,8
2019-02-15T06:01:13.165Z,8
2019-02-15T06:01:53.732Z,8
2019-02-15T06:02:34.293Z,8
2019-02-15T06:03:14.848Z,12
2019-02-15T06:03:55.435Z,12
2019-02-15T06:04:35.979Z,16
2019-02-15T06:05:16.570Z,16
2019-02-15T06:05:57.141Z,20
2019-02-15T06:06:37.703Z,20
2019-02-15T06:07:18.262Z,28
2019-02-15T06:07:58.820Z,28
2019-02-15T06:08:39.391Z,32
2019-02-15T06:09:19.966Z,32
2019-02-15T06:10:00.532Z,40
2019-02-15T06:10:41.083Z,44
2019-02-15T06:11:21.905Z,48
2019-02-15T06:12:02.476Z,52
2019-02-15T06:12:43.043Z,60
2019-02-15T06:13:23.620Z,64
2019-02-15T06:14:04.204Z,72
2019-02-15T06:14:44.763Z,80
2019-02-15T06:15:25.333Z,88
2019-02-15T06:16:05.888Z,92
2019-02-15T06:16:46.456Z,100
2019-02-15T06:17:27.019Z,112
2019-02-15T06:18:07.587Z,120
2019-02-15T06:18:48.151Z,132
2019-02-15T06:19:28.712Z,140
2019-02-15T06:20:09.259Z,148
2019-02-15T06:20:49.828Z,160
2019-02-15T06:21:30.396Z,172
2019-02-15T06:22:11.021Z,184
2019-02-15T06:22:51.622Z,192
2019-02-15T06:23:32.212Z,204
2019-02-15T06:24:12.775Z,216
2019-02-15T06:24:53.360Z,232
2019-02-15T06:25:33.931Z,240
2019-02-15T06:26:14.493Z,256
2019-02-15T06:26:55.062Z,272
2019-02-15T06:27:35.631Z,288
2019-02-15T06:28:16.193Z,304
2019-02-15T06:28:56.769Z,320
2019-02-15T06:29:37.303Z,332
2019-02-15T06:30:17.835Z,352
2019-02-15T06:30:58.394Z,368
2019-02-15T06:31:38.942Z,388
2019-02-15T06:32:19.518Z,408
2019-02-15T06:33:00.101Z,428
2019-02-15T06:33:40.662Z,444
2019-02-15T06:34:21.221Z,460
2019-02-15T06:35:01.790Z,480
2019-02-15T06:35:42.369Z,500
2019-02-15T06:36:22.897Z,520
2019-02-15T06:37:03.486Z,544
2019-02-15T06:37:44.049Z,564
2019-02-15T06:38:34.164Z,584
2019-02-15T06:39:05.163Z,604
2019-02-15T06:39:45.780Z,624
2019-02-15T06:40:26.345Z,648
2019-02-15T06:41:06.937Z,672
2019-02-15T06:41:47.554Z,688
2019-02-15T06:42:28.551Z,708
2019-02-15T06:43:09.190Z,728
2019-02-15T06:43:49.827Z,748
2019-02-15T06:44:30.424Z,768
2019-02-15T06:45:11.012Z,788
2019-02-15T06:45:51.566Z,804
2019-02-15T06:46:32.171Z,828
2019-02-15T06:47:12.739Z,844
2019-02-15T06:47:53.317Z,864
2019-02-15T06:48:33.875Z,884
2019-02-15T06:49:14.487Z,904
2019-02-15T06:49:55.048Z,920
2019-02-15T06:50:35.607Z,944
2019-02-15T06:51:16.207Z,960
2019-02-15T06:51:56.865Z,976
2019-02-15T06:52:37.445Z,1000
2019-02-15T06:53:18.047Z,1016
2019-02-15T06:53:58.607Z,1036
2019-02-15T06:54:39.161Z,1052
2019-02-15T06:55:19.738Z,1072
2019-02-15T06:56:00.320Z,1092
2019-02-15T06:56:40.884Z,1112
2019-02-15T06:57:21.450Z,1128
2019-02-15T06:58:02.009Z,1148
2019-02-15T06:58:45.559Z,1160
2019-02-15T06:59:23.161Z,1180
2019-02-15T07:00:03.787Z,1196
2019-02-15T07:00:44.341Z,1216
2019-02-15T07:01:24.918Z,1232
2019-02-15T07:02:06.259Z,1248
2019-02-15T07:02:48.489Z,1268
2019-02-15T07:03:29.855Z,1284
2019-02-15T07:04:11.136Z,1308
2019-02-15T07:04:52.439Z,1328
2019-02-15T07:05:33.697Z,1348
2019-02-15T07:06:14.984Z,1360
2019-02-15T07:06:55.682Z,1380
2019-02-15T07:07:36.279Z,1392
2019-02-15T07:08:16.870Z,1412
2019-02-15T07:08:57.433Z,1428
2019-02-15T07:09:38.019Z,1440
2019-02-15T07:10:18.845Z,1456
2019-02-15T07:10:59.529Z,1468
2019-02-15T07:11:40.135Z,1484
2019-02-15T07:12:20.972Z,1496
2019-02-15T07:13:01.546Z,1512
2019-02-15T07:13:42.147Z,1528
2019-02-15T07:14:22.773Z,1540
2019-02-15T07:15:03.355Z,1560
2019-02-15T07:15:43.940Z,1580
2019-02-15T07:16:24.530Z,1600
2019-02-15T07:17:05.102Z,1612
2019-02-15T07:17:45.662Z,1632
2019-02-15T07:18:26.223Z,1640
2019-02-15T07:19:07.540Z,1656
2019-02-15T07:19:49.307Z,1668
2019-02-15T07:20:30.141Z,1676
2019-02-15T07:21:10.608Z,1692
2019-02-15T07:21:51.195Z,1708
2019-02-15T07:22:32.186Z,1720
2019-02-15T07:23:13.418Z,1736
2019-02-15T07:23:54.565Z,1752
2019-02-15T07:24:35.372Z,1772
2019-02-15T07:25:16.213Z,1788
2019-02-15T07:25:56.780Z,1808
2019-02-15T07:26:37.817Z,1820
2019-02-15T07:27:18.323Z,1836
2019-02-15T07:27:58.882Z,1852
2019-02-15T07:28:39.468Z,1864
2019-02-15T07:29:20.129Z,1880
2019-02-15T07:30:00.725Z,1892
2019-02-15T07:30:41.377Z,1904
2019-02-15T07:31:21.921Z,1916
2019-02-15T07:32:02.510Z,1928
2019-02-15T07:32:43.176Z,1948
2019-02-15T07:33:23.738Z,1956
2019-02-15T07:34:04.319Z,1972
2019-02-15T07:34:44.890Z,1988
2019-02-15T07:35:25.448Z,2000
2019-02-15T07:36:06.025Z,2012
2019-02-15T07:36:47.821Z,2028
2019-02-15T07:37:27.469Z,2040
2019-02-15T07:38:08.095Z,2056
2019-02-15T07:38:48.705Z,2072
2019-02-15T07:39:29.413Z,2084
2019-02-15T07:40:09.978Z,2096
2019-02-15T07:40:50.539Z,2108
2019-02-15T07:41:31.125Z,2124
2019-02-15T07:42:11.796Z,2136
2019-02-15T07:42:52.762Z,2148
2019-02-15T07:43:33.984Z,2160
2019-02-15T07:44:15.315Z,2168
2019-02-15T07:44:56.182Z,2176
2019-02-15T07:45:42.584Z,2188
2019-02-15T07:46:17.511Z,2220
2019-02-15T07:46:58.240Z,2228
2019-02-15T07:47:38.803Z,2224
2019-02-15T07:48:19.394Z,2236
2019-02-15T07:49:00.156Z,2248
2019-02-15T07:49:40.697Z,2256
2019-02-15T07:50:21.256Z,2268
2019-02-15T07:51:09.477Z,2280
2019-02-15T07:51:44.519Z,2288
2019-02-15T07:52:25.297Z,2304
2019-02-15T07:53:06.505Z,2308
2019-02-15T07:53:47.717Z,2316
2019-02-15T07:54:30.874Z,2328
2019-02-15T07:55:12.053Z,2340
2019-02-15T07:55:52.942Z,2340
2019-02-15T07:56:33.660Z,2352
2019-02-15T07:57:14.550Z,2356
2019-02-15T07:57:55.421Z,2368
2019-02-15T07:58:36.598Z,2376
2019-02-15T07:59:17.776Z,2388
2019-02-15T08:00:00.529Z,2392
2019-02-15T08:00:39.878Z,2404
2019-02-15T08:01:21.733Z,2412
2019-02-15T08:02:04.382Z,2420
2019-02-15T08:02:46.156Z,2428
2019-02-15T08:03:28.295Z,2432
2019-02-15T08:04:08.855Z,2444
2019-02-15T08:04:49.459Z,2456
2019-02-15T08:05:30.034Z,2456
2019-02-15T08:06:10.599Z,2468
2019-02-15T08:06:51.167Z,2480
2019-02-15T08:07:31.733Z,2488
2019-02-15T08:08:12.287Z,2500
2019-02-15T08:08:52.868Z,2512
2019-02-15T08:09:33.444Z,2524
2019-02-15T08:10:13.999Z,2556
2019-02-15T08:10:54.564Z,2576
2019-02-15T08:11:35.122Z,2600
2019-02-15T08:12:15.689Z,2628
2019-02-15T08:12:56.272Z,2672
2019-02-15T08:13:36.847Z,2696
2019-02-15T08:14:17.717Z,2728
2019-02-15T08:14:57.961Z,2764
2019-02-15T08:15:38.553Z,2796
2019-02-15T08:16:19.124Z,2840
2019-02-15T08:16:59.701Z,2916
2019-02-15T08:17:40.287Z,3260
2019-02-15T08:18:20.865Z,12708
2019-02-15T08:19:01.437Z,29984
2019-02-15T08:19:41.985Z,48960
2019-02-15T08:20:22.532Z,65088
2019-02-15T08:21:03.084Z,77312
2019-02-15T08:21:43.649Z,82112
2019-02-15T08:22:24.187Z,82272
2019-02-15T08:23:04.757Z,79840
2019-02-15T08:23:45.337Z,78272
2019-02-15T08:24:26.465Z,79392
2019-02-15T08:25:07.518Z,80928
2019-02-15T08:25:48.572Z,81024
2019-02-15T08:26:29.254Z,80928
2019-02-15T08:27:10.401Z,81888
2019-02-15T08:27:51.339Z,77696
2019-02-15T08:28:32.446Z,75168
2019-02-15T08:29:13.166Z,74848
2019-02-15T08:29:53.872Z,78176
2019-02-15T08:30:35.871Z,78464
2019-02-15T08:31:16.694Z,77952
2019-02-15T08:31:57.339Z,75520
2019-02-15T08:32:38.165Z,72960
2019-02-15T08:33:18.982Z,72480
2019-02-15T08:33:59.689Z,71680
2019-02-15T08:34:40.357Z,71136
2019-02-15T08:35:20.964Z,69920
2019-02-15T08:36:01.557Z,69856
2019-02-15T08:36:42.128Z,66624
2019-02-15T08:37:22.709Z,67616
2019-02-15T08:38:03.294Z,67808
2019-02-15T08:38:43.843Z,67296
2019-02-15T08:39:24.407Z,66208
2019-02-15T08:40:04.997Z,67552
2019-02-15T08:40:45.614Z,68320
2019-02-15T08:41:26.204Z,67264
2019-02-15T08:42:06.811Z,63936
2019-02-15T08:42:47.401Z,64992
2019-02-15T08:43:28.015Z,66912
2019-02-15T08:44:08.581Z,67104
2019-02-15T08:44:49.164Z,65184
2019-02-15T08:45:29.792Z,62368
2019-02-15T08:46:10.360Z,62592
2019-02-15T08:46:50.939Z,63264
2019-02-15T08:47:31.507Z,65536
2019-02-15T08:48:12.102Z,67168
2019-02-15T08:48:52.676Z,64288
2019-02-15T08:49:33.329Z,58080
2019-02-15T08:50:13.922Z,49440
2019-02-15T08:50:54.487Z,44480
2019-02-15T08:51:35.070Z,43744
2019-02-15T08:52:15.644Z,44704
2019-02-15T08:52:56.266Z,47392
2019-02-15T08:53:36.851Z,48544
2019-02-15T08:54:17.445Z,49472
2019-02-15T08:54:58.027Z,53056
2019-02-15T08:55:38.598Z,54688
2019-02-15T08:56:19.678Z,55904
2019-02-15T08:57:00.253Z,54240
2019-02-15T08:57:40.823Z,57600
2019-02-15T08:58:21.429Z,60320
2019-02-15T08:59:02.144Z,61056
2019-02-15T08:59:42.612Z,59392
2019-02-15T09:00:23.196Z,59904
2019-02-15T09:01:03.828Z,61696
2019-02-15T09:01:44.392Z,64224
2019-02-15T09:02:24.968Z,64288
2019-02-15T09:03:05.542Z,64224
2019-02-15T09:03:46.113Z,64000
2019-02-15T09:04:26.670Z,63104
2019-02-15T09:05:07.261Z,62944
2019-02-15T09:05:47.844Z,64896
2019-02-15T09:06:28.417Z,68160
2019-02-15T09:07:08.985Z,66176
2019-02-15T09:07:49.571Z,65696
2019-02-15T09:08:30.223Z,63936
2019-02-15T09:09:10.763Z,63936
2019-02-15T09:09:51.360Z,62112
2019-02-15T09:10:31.943Z,57024
2019-02-15T09:11:12.511Z,56576
2019-02-15T09:11:53.084Z,57440
2019-02-15T09:12:33.684Z,57888
2019-02-15T09:13:14.262Z,53056
2019-02-15T09:13:54.838Z,49472
2019-02-15T09:14:35.430Z,50240
2019-02-15T09:15:16.141Z,49152
2019-02-15T09:15:56.718Z,42560
2019-02-15T09:16:37.271Z,32800
2019-02-15T09:17:17.821Z,23424
2019-02-15T09:17:58.457Z,18208
2019-02-15T09:18:39.159Z,16864
2019-02-15T09:19:20.016Z,15744
2019-02-15T09:20:00.927Z,14496
2019-02-15T09:20:41.729Z,13472
2019-02-15T09:21:22.757Z,12500
2019-02-15T09:22:03.359Z,11656
2019-02-15T09:22:43.943Z,10936
2019-02-15T09:23:24.507Z,10408
2019-02-15T09:24:05.092Z,9748
2019-02-15T09:24:45.708Z,8964
2019-02-15T09:25:26.545Z,8308
2019-02-15T09:26:07.696Z,7956
2019-02-15T09:26:48.279Z,7712
2019-02-15T09:27:28.855Z,7464
2019-02-15T09:28:09.428Z,7344
2019-02-15T09:28:50.014Z,7224
2019-02-15T09:29:30.744Z,7132
2019-02-15T09:30:11.526Z,7076
2019-02-15T09:30:52.420Z,6960
2019-02-15T09:31:33.311Z,6788
2019-02-15T09:32:14.371Z,6520
2019-02-15T09:32:55.425Z,6272
2019-02-15T09:33:37.414Z,6008
2019-02-15T09:34:18.670Z,5828
2019-02-15T09:34:59.392Z,5672
2019-02-15T09:35:40.076Z,5532
2019-02-15T09:36:20.657Z,5404
2019-02-15T09:37:01.542Z,5240